createdAt,value
2022-12-01T00:01:09.682Z,17.90
2022-12-01T00:03:37.103Z,15.65
2022-12-01T00:06:16.036Z,19.42
2022-12-01T00:09:02.256Z,14.77
2022-12-01T00:11:29.109Z,16.35
2022-12-01T00:13:55.636Z,17.08
2022-12-01T00:16:22.384Z,15.88
2022-12-01T00:18:53.612Z,17.13
2022-12-01T00:21:22.786Z,20.17
2022-12-01T00:23:51.816Z,14.98
2022-12-01T00:26:20.031Z,18.08
2022-12-01T00:28:54.607Z,16.02
2022-12-01T00:31:22.101Z,17.23
2022-12-01T00:33:48.778Z,14.60
2022-12-01T00:36:15.525Z,14.60
2022-12-01T00:38:42.154Z,16.85
2022-12-01T00:41:08.871Z,17.83
2022-12-01T00:43:35.577Z,15.63
2022-12-01T00:46:02.315Z,19.08
2022-12-01T00:48:29.081Z,16.00
2022-12-01T00:50:55.790Z,18.05
2022-12-01T00:53:23.061Z,17.13
2022-12-01T00:55:49.687Z,18.80
2022-12-01T00:58:16.373Z,17.10
2022-12-01T01:00:43.155Z,20.73
2022-12-01T01:03:10.659Z,18.33
2022-12-01T01:05:38.781Z,16.23
2022-12-01T01:08:12.921Z,15.95
2022-12-01T01:10:44.272Z,18.05
2022-12-01T01:13:12.189Z,16.48
2022-12-01T01:15:39.213Z,15.32
2022-12-01T01:18:06.515Z,17.27
2022-12-01T01:20:33.568Z,16.65
2022-12-01T01:23:00.202Z,18.10
2022-12-01T01:25:26.821Z,14.05
2022-12-01T01:27:53.347Z,14.20
2022-12-01T01:30:20.875Z,18.92
2022-12-01T01:32:47.554Z,17.05
2022-12-01T01:35:14.157Z,15.65
2022-12-01T01:37:40.779Z,14.75
2022-12-01T01:40:07.959Z,16.20
2022-12-01T01:42:34.455Z,14.52
2022-12-01T01:45:01.072Z,15.05
2022-12-01T01:47:35.990Z,15.15
2022-12-01T01:50:09.710Z,13.60
2022-12-01T01:52:40.272Z,15.38
2022-12-01T01:55:07.899Z,16.70
2022-12-01T01:57:35.153Z,13.85
2022-12-01T02:00:09.251Z,13.90
2022-12-01T02:02:43.958Z,14.45
2022-12-01T02:05:17.903Z,16.23
2022-12-01T02:07:45.615Z,14.52
2022-12-01T02:10:14.564Z,13.93
2022-12-01T02:12:53.002Z,13.63
2022-12-01T02:15:43.058Z,15.38
2022-12-01T02:18:22.031Z,14.48
2022-12-01T02:21:25.615Z,12.07
2022-12-01T02:24:04.227Z,15.15
2022-12-01T02:26:43.770Z,13.75
2022-12-01T02:29:17.310Z,13.63
2022-12-01T02:32:02.898Z,12.32
2022-12-01T02:34:40.222Z,13.25
2022-12-01T02:42:40.158Z,12.35
2022-12-01T02:45:11.601Z,12.45
2022-12-01T02:47:41.223Z,12.75
2022-12-01T02:50:10.175Z,15.35
2022-12-01T02:52:38.687Z,14.93
2022-12-01T02:55:06.025Z,14.30
2022-12-01T02:57:32.530Z,14.50
2022-12-01T03:00:00.022Z,11.40
2022-12-01T03:02:48.826Z,16.92
2022-12-01T03:05:25.135Z,17.45
2022-12-01T03:08:06.128Z,14.20
2022-12-01T03:10:55.750Z,13.77
2022-12-01T03:13:57.890Z,15.27
2022-12-01T03:16:36.957Z,13.05
2022-12-01T03:19:13.041Z,15.00
2022-12-01T03:21:49.052Z,13.82
2022-12-01T03:24:19.557Z,15.05
2022-12-01T03:26:57.006Z,15.63
2022-12-01T03:29:46.458Z,16.15
2022-12-01T03:32:19.503Z,16.70
2022-12-01T03:35:11.091Z,15.15
2022-12-01T03:37:43.399Z,13.93
2022-12-01T03:40:14.738Z,16.88
2022-12-01T03:42:52.916Z,15.45
2022-12-01T03:45:31.475Z,15.02
2022-12-01T03:47:58.141Z,15.50
2022-12-01T03:50:35.628Z,16.45
2022-12-01T03:53:19.383Z,16.38
2022-12-01T03:55:52.405Z,14.25
2022-12-01T03:58:23.298Z,16.60
2022-12-01T04:00:53.395Z,16.50
2022-12-01T04:03:23.275Z,16.65
2022-12-01T04:05:49.872Z,14.55
2022-12-01T04:08:16.693Z,16.77
2022-12-01T04:10:43.415Z,14.80
2022-12-01T04:13:16.841Z,15.65
2022-12-01T04:15:43.823Z,13.48
2022-12-01T04:18:10.351Z,13.50
2022-12-01T04:20:36.857Z,16.40
2022-12-01T04:23:03.591Z,16.52
2022-12-01T04:25:30.139Z,14.93
2022-12-01T04:27:56.617Z,15.38
2022-12-01T04:30:23.512Z,17.20
2022-12-01T04:32:49.998Z,16.38
2022-12-01T04:35:16.552Z,14.98
2022-12-01T04:37:43.210Z,15.45
2022-12-01T04:40:10.214Z,15.18
2022-12-01T04:42:36.768Z,15.38
2022-12-01T04:45:03.862Z,15.65
2022-12-01T04:47:30.397Z,15.88
2022-12-01T04:49:56.914Z,17.42
2022-12-01T04:52:23.691Z,15.07
2022-12-01T04:54:50.179Z,13.60
2022-12-01T04:57:16.691Z,14.88
2022-12-01T04:59:43.308Z,13.60
2022-12-01T05:02:09.963Z,16.13
2022-12-01T05:04:38.797Z,14.45
2022-12-01T05:07:05.752Z,14.50
2022-12-01T05:09:32.291Z,14.32
2022-12-01T05:11:58.788Z,15.30
2022-12-01T05:14:25.412Z,16.35
2022-12-01T05:16:51.908Z,16.30
2022-12-01T05:19:37.119Z,15.68
2022-12-01T05:22:03.686Z,15.57
2022-12-01T05:24:30.190Z,14.57
2022-12-01T05:26:56.818Z,15.43
2022-12-01T05:29:23.436Z,14.82
2022-12-01T05:31:50.001Z,16.60
2022-12-01T05:34:16.805Z,15.88
2022-12-01T05:36:43.440Z,15.48
2022-12-01T05:39:09.942Z,15.05
2022-12-01T05:41:36.550Z,16.10
2022-12-01T05:44:03.515Z,15.50
2022-12-01T05:46:30.015Z,14.57
2022-12-01T05:48:56.672Z,14.75
2022-12-01T05:51:23.219Z,14.98
2022-12-01T05:53:49.954Z,14.77
2022-12-01T05:56:16.523Z,15.43
2022-12-01T05:58:43.128Z,13.07
2022-12-01T06:01:09.689Z,14.52
2022-12-01T06:03:36.313Z,13.50
2022-12-01T06:06:02.917Z,13.88
2022-12-01T06:08:29.483Z,13.45
2022-12-01T06:10:56.065Z,12.70
2022-12-01T06:13:22.636Z,15.20
2022-12-01T06:15:57.549Z,14.68
2022-12-01T06:18:24.933Z,12.40
2022-12-01T06:20:51.415Z,15.60
2022-12-01T06:23:18.141Z,13.00
2022-12-01T06:25:44.711Z,14.65
2022-12-01T06:28:11.180Z,12.95
2022-12-01T06:30:37.818Z,13.02
2022-12-01T06:33:04.471Z,13.93
2022-12-01T06:35:31.005Z,13.95
2022-12-01T06:37:57.631Z,13.82
2022-12-01T06:40:24.358Z,12.77
2022-12-01T06:42:50.836Z,12.43
2022-12-01T06:45:17.411Z,15.82
2022-12-01T06:47:44.003Z,16.35
2022-12-01T06:50:11.907Z,14.35
2022-12-01T06:52:38.535Z,14.18
2022-12-01T06:55:06.036Z,13.27
2022-12-01T06:57:32.774Z,15.13
2022-12-01T06:59:59.578Z,13.50
2022-12-01T07:02:26.649Z,13.70
2022-12-01T07:04:53.207Z,11.35
2022-12-01T07:07:19.902Z,15.50
2022-12-01T07:09:46.771Z,15.20
2022-12-01T07:12:13.468Z,13.52
2022-12-01T07:14:42.548Z,13.68
2022-12-01T07:17:09.932Z,15.93
2022-12-01T07:19:36.543Z,14.77
2022-12-01T07:22:03.261Z,14.48
2022-12-01T07:24:30.620Z,14.00
2022-12-01T07:26:57.115Z,14.60
2022-12-01T07:29:23.782Z,14.52
2022-12-01T07:31:50.331Z,12.95
2022-12-01T07:34:16.820Z,14.80
2022-12-01T07:36:43.381Z,14.68
2022-12-01T07:39:09.914Z,14.77
2022-12-01T07:41:36.432Z,12.00
2022-12-01T07:44:03.272Z,13.45
2022-12-01T07:46:30.000Z,11.73
2022-12-01T07:48:57.141Z,15.38
2022-12-01T07:51:25.520Z,14.57
2022-12-01T07:53:53.123Z,12.43
2022-12-01T07:56:20.929Z,15.15
2022-12-01T07:58:47.589Z,13.88
2022-12-01T08:01:16.792Z,14.73
2022-12-01T08:03:43.729Z,11.82
2022-12-01T08:06:11.809Z,17.55
2022-12-01T08:08:40.108Z,15.18
2022-12-01T08:11:18.999Z,13.70
2022-12-01T08:13:45.760Z,14.68
2022-12-01T08:16:14.833Z,11.93
2022-12-01T08:18:42.872Z,12.93
2022-12-01T08:21:12.348Z,13.80
2022-12-01T08:23:39.197Z,13.00
2022-12-01T08:26:09.226Z,13.52
2022-12-01T08:28:36.923Z,14.00
2022-12-01T08:31:18.292Z,14.70
2022-12-01T08:33:45.771Z,13.65
2022-12-01T08:36:12.353Z,13.70
2022-12-01T08:38:39.051Z,15.82
2022-12-01T08:41:08.347Z,14.90
2022-12-01T08:46:28.886Z,13.25
2022-12-01T08:48:57.863Z,13.68
2022-12-01T08:51:25.699Z,14.52
2022-12-01T08:53:52.343Z,14.15
2022-12-01T08:56:24.229Z,12.65
2022-12-01T08:58:51.779Z,13.95
2022-12-01T09:01:19.390Z,13.15
2022-12-01T09:03:46.860Z,10.93
2022-12-01T09:06:20.287Z,12.95
2022-12-01T09:08:47.496Z,13.27
2022-12-01T09:11:16.827Z,12.68
2022-12-01T09:13:45.422Z,12.02
2022-12-01T09:16:16.140Z,12.20
2022-12-01T09:18:44.364Z,12.98
2022-12-01T09:21:20.071Z,12.57
2022-12-01T09:23:47.269Z,14.55
2022-12-01T09:26:18.637Z,12.52
2022-12-01T09:28:50.131Z,13.13
2022-12-01T09:31:18.517Z,11.77
2022-12-01T09:33:45.162Z,12.93
2022-12-01T09:36:12.049Z,13.50
2022-12-01T09:38:39.090Z,13.07
2022-12-01T09:41:11.864Z,13.30
2022-12-01T09:43:45.959Z,14.93
2022-12-01T09:46:18.462Z,12.73
2022-12-01T09:48:51.476Z,14.65
2022-12-01T09:51:28.257Z,11.88
2022-12-01T09:53:58.375Z,12.00
2022-12-01T09:56:32.446Z,12.45
2022-12-01T09:59:02.341Z,10.23
2022-12-01T10:01:35.692Z,11.88
2022-12-01T10:04:28.603Z,12.95
2022-12-01T10:07:00.824Z,10.95
2022-12-01T10:09:41.548Z,14.05
2022-12-01T10:12:15.259Z,12.52
2022-12-01T10:14:45.507Z,11.55
2022-12-01T10:17:34.746Z,11.55
2022-12-01T10:20:25.050Z,11.63
2022-12-01T10:22:54.360Z,15.18
2022-12-01T10:25:28.914Z,12.57
2022-12-01T10:28:22.295Z,11.45
2022-12-01T10:30:51.399Z,11.95
2022-12-01T10:33:24.992Z,11.60
2022-12-01T10:35:52.756Z,13.90
2022-12-01T10:38:29.654Z,17.23
2022-12-01T10:40:59.959Z,13.35
2022-12-01T10:43:34.055Z,12.00
2022-12-01T10:46:05.892Z,14.55
2022-12-01T10:48:32.476Z,13.27
2022-12-01T10:51:15.897Z,14.15
2022-12-01T10:53:42.511Z,14.32
2022-12-01T10:56:16.158Z,15.70
2022-12-01T10:58:53.801Z,15.07
2022-12-01T11:01:24.748Z,15.55
2022-12-01T11:03:55.606Z,14.88
2022-12-01T11:06:25.937Z,15.18
2022-12-01T11:09:00.036Z,16.73
2022-12-01T11:11:28.647Z,15.98
2022-12-01T11:13:56.875Z,13.50
2022-12-01T11:16:44.853Z,14.90
2022-12-01T11:19:14.312Z,17.27
2022-12-01T11:21:52.910Z,13.23
2022-12-01T11:24:44.884Z,15.75
2022-12-01T11:27:21.276Z,14.25
2022-12-01T11:29:54.698Z,15.02
2022-12-01T11:32:23.473Z,16.02
2022-12-01T11:35:04.492Z,14.70
2022-12-01T11:37:50.480Z,16.27
2022-12-01T11:40:44.939Z,14.77
2022-12-01T11:43:43.743Z,14.10
2022-12-01T11:46:13.248Z,15.05
2022-12-01T11:48:40.484Z,13.80
2022-12-01T11:51:08.715Z,14.40
2022-12-01T11:53:38.152Z,15.88
2022-12-01T11:56:28.895Z,13.35
2022-12-01T11:59:06.544Z,12.15
2022-12-01T12:01:42.098Z,13.13
2022-12-01T12:04:09.138Z,13.15
2022-12-01T12:07:17.809Z,11.32
2022-12-01T12:10:03.540Z,12.40
2022-12-01T12:12:36.572Z,13.27
2022-12-01T12:15:16.317Z,12.63
2022-12-01T12:18:21.252Z,12.65
2022-12-01T12:21:15.851Z,11.18
2022-12-01T12:23:55.747Z,11.07
2022-12-01T12:26:27.023Z,12.88
2022-12-01T12:29:30.503Z,12.43
2022-12-01T12:32:23.392Z,11.95
2022-12-01T12:35:18.316Z,12.82
2022-12-01T12:38:00.354Z,12.73
2022-12-01T12:40:40.949Z,13.98
2022-12-01T12:43:10.518Z,11.40
2022-12-01T12:45:59.979Z,12.02
2022-12-01T12:48:29.355Z,11.25
2022-12-01T12:51:04.476Z,9.68
2022-12-01T12:53:41.110Z,10.63
2022-12-01T12:56:13.988Z,11.23
2022-12-01T12:58:57.574Z,10.80
2022-12-01T13:03:56.453Z,11.55
2022-12-01T13:06:32.792Z,10.63
2022-12-01T13:09:08.174Z,11.43
2022-12-01T13:11:59.637Z,9.68
2022-12-01T13:14:37.167Z,11.48
2022-12-01T13:17:26.100Z,11.05
2022-12-01T13:19:52.589Z,9.65
2022-12-01T13:22:29.641Z,12.13
2022-12-01T13:24:56.532Z,12.80
2022-12-01T13:27:25.776Z,12.20
2022-12-01T13:29:54.032Z,10.10
2022-12-01T13:58:25.111Z,10.90
2022-12-01T14:00:51.875Z,11.00
2022-12-01T14:03:21.448Z,13.05
2022-12-01T14:05:57.711Z,13.00
2022-12-01T14:08:28.630Z,9.60
2022-12-01T14:11:07.306Z,10.45
2022-12-01T14:16:12.908Z,10.30
2022-12-01T14:18:44.322Z,8.13
2022-12-01T14:21:12.490Z,10.00
2022-12-01T14:23:59.848Z,10.13
2022-12-01T14:26:28.698Z,9.70
2022-12-01T14:28:55.909Z,8.85
2022-12-01T14:31:24.628Z,9.73
2022-12-01T14:33:59.248Z,9.88
2022-12-01T14:40:18.039Z,10.05
2022-12-01T14:43:06.096Z,9.35
2022-12-01T14:45:40.087Z,8.88
2022-12-01T14:48:12.686Z,9.55
2022-12-01T14:50:46.950Z,11.48
2022-12-01T14:53:20.932Z,10.10
2022-12-01T14:56:14.850Z,7.53
2022-12-01T14:58:52.392Z,9.63
2022-12-01T15:01:20.861Z,10.15
2022-12-01T15:03:51.415Z,9.02
2022-12-01T15:06:24.544Z,8.18
2022-12-01T15:14:35.063Z,10.90
2022-12-01T15:17:05.694Z,6.78
2022-12-01T15:19:34.618Z,8.65
2022-12-01T15:22:06.061Z,9.48
2022-12-01T15:24:34.290Z,9.00
2022-12-01T15:27:04.032Z,7.60
2022-12-01T15:29:58.718Z,9.20
2022-12-01T15:32:27.157Z,9.18
2022-12-01T15:34:55.671Z,7.60
2022-12-01T15:37:25.167Z,8.85
2022-12-01T15:40:00.905Z,8.32
2022-12-01T15:42:39.680Z,8.95
2022-12-01T15:45:15.284Z,11.02
2022-12-01T15:47:43.677Z,7.78
2022-12-01T15:50:31.299Z,9.15
2022-12-01T15:52:59.410Z,10.45
2022-12-01T15:55:30.882Z,7.75
2022-12-01T15:57:58.840Z,9.32
2022-12-01T16:00:26.285Z,8.35
2022-12-01T16:02:55.493Z,9.02
2022-12-01T16:05:29.198Z,11.90
2022-12-01T16:08:13.375Z,15.15
2022-12-01T16:10:40.612Z,9.82
2022-12-01T16:13:40.887Z,10.43
2022-12-01T16:16:30.223Z,9.85
2022-12-01T16:19:02.216Z,11.23
2022-12-01T16:21:32.991Z,9.00
2022-12-01T16:24:05.308Z,6.07
2022-12-01T16:26:33.479Z,9.13
2022-12-01T16:29:00.408Z,7.63
2022-12-01T16:31:27.509Z,8.80
2022-12-01T16:34:09.836Z,7.57
2022-12-01T16:36:45.488Z,10.35
2022-12-01T16:39:16.417Z,8.48
2022-12-01T16:41:47.940Z,9.25
2022-12-01T16:44:30.609Z,8.43
2022-12-01T16:46:57.485Z,7.82
2022-12-01T16:49:24.186Z,9.00
2022-12-01T16:51:56.042Z,9.73
2022-12-01T16:54:23.962Z,9.55
2022-12-01T16:56:51.334Z,9.23
2022-12-01T16:59:18.428Z,10.05
2022-12-01T17:01:45.179Z,8.20
2022-12-01T17:04:11.919Z,12.88
2022-12-01T17:06:38.791Z,8.90
2022-12-01T17:09:05.890Z,7.53
2022-12-01T17:11:33.139Z,6.72
2022-12-01T17:13:59.875Z,8.60
2022-12-01T17:16:27.078Z,8.45
2022-12-01T17:18:53.861Z,8.50
2022-12-01T17:21:20.521Z,9.10
2022-12-01T17:23:47.433Z,8.52
2022-12-01T17:26:19.737Z,8.27
2022-12-01T17:28:46.967Z,11.85
2022-12-01T17:31:14.454Z,8.40
2022-12-01T17:33:41.522Z,7.65
2022-12-01T17:36:11.588Z,8.68
2022-12-01T17:38:39.987Z,9.77
2022-12-01T17:41:09.512Z,8.32
2022-12-01T17:43:37.268Z,8.55
2022-12-01T17:46:05.809Z,9.40
2022-12-01T17:48:44.405Z,9.50
2022-12-01T17:51:12.855Z,8.13
2022-12-01T17:53:40.365Z,9.80
2022-12-01T17:56:12.634Z,10.32
2022-12-01T17:58:40.182Z,8.95
2022-12-01T18:01:12.965Z,8.90
2022-12-01T18:03:39.531Z,9.52
2022-12-01T18:06:06.437Z,8.88
2022-12-01T18:08:35.700Z,10.15
2022-12-01T18:11:07.809Z,8.50
2022-12-01T18:13:43.805Z,8.48
2022-12-01T18:16:17.000Z,10.02
2022-12-01T18:18:44.036Z,8.80
2022-12-01T18:21:14.615Z,10.40
2022-12-01T18:23:41.560Z,10.18
2022-12-01T18:26:15.932Z,10.35
2022-12-01T18:28:43.565Z,10.43
2022-12-01T18:31:12.944Z,8.65
2022-12-01T18:33:42.027Z,9.52
2022-12-01T18:36:14.410Z,9.55
2022-12-01T18:38:41.263Z,10.60
2022-12-01T18:41:08.317Z,9.02
2022-12-01T18:43:34.963Z,10.18
2022-12-01T18:46:04.087Z,8.30
2022-12-01T18:48:30.781Z,8.70
2022-12-01T18:51:03.001Z,10.15
2022-12-01T18:53:29.824Z,8.50
2022-12-01T18:55:56.504Z,10.93
2022-12-01T18:58:23.128Z,13.40
2022-12-01T19:00:49.834Z,10.50
2022-12-01T19:03:16.435Z,9.40
2022-12-01T19:05:43.196Z,9.32
2022-12-01T19:08:09.829Z,9.10
2022-12-01T19:10:36.433Z,8.50
2022-12-01T19:13:03.230Z,10.45
2022-12-01T19:15:29.890Z,10.18
2022-12-01T19:17:56.409Z,9.02
2022-12-01T19:20:23.048Z,10.10
2022-12-01T19:22:49.532Z,10.98
2022-12-01T19:25:16.065Z,11.27
2022-12-01T19:27:42.799Z,9.80
2022-12-01T19:30:09.806Z,9.75
2022-12-01T19:32:36.488Z,11.80
2022-12-01T19:35:03.722Z,11.65
2022-12-01T19:37:30.257Z,10.73
2022-12-01T19:39:56.764Z,11.30
2022-12-01T19:42:23.543Z,10.55
2022-12-01T19:44:50.534Z,10.88
2022-12-01T19:47:21.867Z,11.93
2022-12-01T19:49:49.080Z,10.73
2022-12-01T19:52:15.583Z,12.25
2022-12-01T19:54:42.739Z,10.93
2022-12-01T19:57:09.365Z,9.68
2022-12-01T19:59:35.924Z,11.25
2022-12-01T20:02:02.508Z,11.70
2022-12-01T20:04:29.268Z,12.18
2022-12-01T20:06:55.774Z,15.77
2022-12-01T20:09:22.689Z,9.82
2022-12-01T20:11:49.312Z,11.80
2022-12-01T20:14:15.995Z,12.18
2022-12-01T20:16:42.505Z,12.02
2022-12-01T20:19:10.558Z,10.63
2022-12-01T20:21:42.281Z,12.93
2022-12-01T20:24:13.201Z,10.45
2022-12-01T20:26:46.100Z,12.07
2022-12-01T20:29:24.522Z,10.27
2022-12-01T20:31:52.895Z,15.52
2022-12-01T20:34:32.309Z,13.15
2022-12-01T20:36:59.384Z,12.70
2022-12-01T20:39:26.989Z,13.70
2022-12-01T20:41:53.700Z,13.02
2022-12-01T20:44:20.667Z,12.05
2022-12-01T20:46:47.742Z,11.77
2022-12-01T20:49:16.085Z,11.98
2022-12-01T20:51:42.805Z,12.52
2022-12-01T20:54:29.279Z,12.70
2022-12-01T20:56:56.760Z,11.57
2022-12-01T20:59:23.690Z,11.82
2022-12-01T21:01:50.208Z,12.20
2022-12-01T21:04:17.833Z,12.98
2022-12-01T21:06:44.495Z,16.15
2022-12-01T21:09:13.024Z,12.02
2022-12-01T21:12:05.298Z,13.95
2022-12-01T21:14:47.438Z,14.80
2022-12-01T21:17:29.699Z,13.60
2022-12-01T21:20:02.462Z,12.60
2022-12-01T21:22:29.073Z,13.43
2022-12-01T21:25:06.962Z,13.52
2022-12-01T21:27:33.668Z,12.73
2022-12-01T21:30:00.804Z,15.57
2022-12-01T21:32:31.533Z,14.15
2022-12-01T21:35:07.721Z,12.30
2022-12-01T21:37:34.437Z,14.50
2022-12-01T21:40:00.977Z,13.30
2022-12-01T21:42:30.497Z,13.60
2022-12-01T21:44:57.708Z,16.00
2022-12-01T21:47:27.251Z,13.88
2022-12-01T21:49:59.567Z,12.50
2022-12-01T21:52:30.352Z,13.23
2022-12-01T21:55:23.409Z,11.95
2022-12-01T21:57:51.947Z,16.92
2022-12-01T22:00:21.673Z,12.63
2022-12-01T22:02:50.868Z,13.50
2022-12-01T22:05:38.172Z,16.83
2022-12-01T22:08:26.795Z,15.73
2022-12-01T22:11:02.046Z,15.60
2022-12-01T22:13:45.285Z,14.15
2022-12-01T22:16:25.932Z,15.50
2022-12-01T22:18:55.262Z,16.60
2022-12-01T22:21:21.703Z,14.00
2022-12-01T22:24:10.131Z,15.38
2022-12-01T22:26:47.819Z,13.00
2022-12-01T22:29:26.373Z,14.45
2022-12-01T22:32:22.214Z,14.32
2022-12-01T22:34:56.395Z,12.52
2022-12-01T22:37:39.630Z,14.35
2022-12-01T22:40:34.745Z,15.05
2022-12-01T22:43:21.102Z,12.73
2022-12-01T22:46:00.967Z,15.43
2022-12-01T22:48:27.534Z,12.90
2022-12-01T22:50:54.589Z,12.48
2022-12-01T22:53:31.089Z,15.07
2022-12-01T22:56:00.760Z,16.48
2022-12-01T22:58:32.122Z,14.77
2022-12-01T23:01:07.713Z,14.50
2022-12-01T23:03:34.315Z,15.15
2022-12-01T23:06:00.836Z,15.95
2022-12-01T23:08:27.427Z,15.20
2022-12-01T23:10:54.051Z,13.90
2022-12-01T23:13:23.217Z,15.25
2022-12-01T23:15:51.957Z,14.60
2022-12-01T23:18:28.312Z,14.60
2022-12-01T23:21:00.249Z,12.55
2022-12-01T23:23:31.930Z,14.60
2022-12-01T23:25:59.240Z,13.65
2022-12-01T23:28:25.804Z,13.98
2022-12-01T23:30:56.425Z,14.77
2022-12-01T23:33:31.676Z,14.60
2022-12-01T23:36:01.087Z,17.55
2022-12-01T23:38:38.054Z,14.57
2022-12-01T23:41:07.623Z,17.77
2022-12-01T23:43:43.055Z,15.05
2022-12-01T23:46:22.850Z,12.73
2022-12-01T23:48:57.357Z,15.75
2022-12-01T23:51:39.883Z,15.00
2022-12-01T23:54:23.671Z,15.10
2022-12-01T23:56:53.950Z,17.17
2022-12-01T23:59:21.330Z,14.65
